Vaassen, Netherlands
Current Conditions -  °F | °C
As of 3:25 PM on Thursday 29 Jan 2015 (Local Time) from EHDL Reporting Station
Thunderstorm Thunderstorm  
Wind Chill: -3°   Ceiling: 1800
Heat Index:   Visibility: 4mi
Dew Point:   Wind: 14mph
Humidity: 93%   Direction: 220°SW
Pressure: 28.94"   Gusts: NA
Location:  52.29°N, 5.97°E
Report Text: EHDL 291425Z AUTO 22012KT 6000 -TSRA +DZ FEW006 SCT007 FEW015CB BKN018 02/01 Q0980 GRN
Loading
Personal Weather Stations






























Interactive Weather Map New forecast layout! Learn more

10-Day Weather Forecast

Advertisements
Track Severe Weather on mobile